Terminal Aerodrome Forecast
Issued by NWS

Home | Current Version | Previous Version | Text Only | Print | Product List | Glossary Off
Versions: 1 2 3 4 5 6 7 8 9 10 11 12 13 14 15 16 17 18 19 20

886
FTUS43 KLOT 202320
TAFMDW
TAF
KMDW 202320Z 2100/2124 29018G27KT P6SM BKN035
     FM210400 29013G19KT P6SM BKN030
     FM211200 31010G15KT P6SM BKN035
     FM211800 03010G15KT P6SM BKN035=

USA.gov is the U.S. government's official web portal to all federal, state and local government web resources and services.